Time;durP1;ratioP1;P1;durP2;ratioP2;P2;SDS_P1;SDS_P2;PMS_P1;PMS_P2;Temp;Humidity;BMP_temperature;BMP_pressure;BME280_temperature;BME280_humidity;BME280_pressure;Samples;Min_cycle;Max_cycle;Signal;HPM_P1;HPM_P2
2023/04/22 00:01:25;;;;;;;32.67;23.35;;;;;;;7.06;100.00;100914.25;5073637;28;20051;-73
2023/04/22 00:03:50;;;;;;;36.40;23.45;;;;;;;7.04;100.00;100913.59;5082716;28;20035;-72
2023/04/22 00:06:16;;;;;;;33.35;23.10;;;;;;;7.01;100.00;100912.06;5079131;28;20043;-73
2023/04/22 00:08:42;;;;;;;37.05;23.83;;;;;;;7.02;100.00;100915.63;5078388;28;20111;-73
2023/04/22 00:11:07;;;;;;;40.33;25.95;;;;;;;7.06;100.00;100906.91;5082394;28;20115;-75
2023/04/22 00:13:33;;;;;;;41.88;26.05;;;;;;;7.06;100.00;100922.41;5079901;28;20039;-73
2023/04/22 00:15:58;;;;;;;40.78;26.00;;;;;;;7.12;100.00;100921.72;5077861;28;20039;-73
2023/04/22 00:18:24;;;;;;;40.20;26.52;;;;;;;7.02;100.00;100921.06;5080034;28;20473;-72
2023/04/22 00:20:50;;;;;;;37.40;26.00;;;;;;;6.97;100.00;100916.13;5082016;28;20067;-73
2023/04/22 00:23:16;;;;;;;38.92;25.02;;;;;;;6.96;100.00;100917.16;5083347;28;20060;-72
2023/04/22 00:25:41;;;;;;;37.55;26.70;;;;;;;6.84;100.00;100913.06;5083432;28;20494;-72
2023/04/22 00:28:07;;;;;;;36.63;25.40;;;;;;;6.73;100.00;100912.59;5081942;28;20083;-72
2023/04/22 00:30:32;;;;;;;39.60;26.88;;;;;;;6.69;100.00;100919.41;5069932;28;20500;-73
2023/04/22 00:32:57;;;;;;;35.85;24.75;;;;;;;6.70;100.00;100923.81;5081733;28;20024;-72
2023/04/22 00:35:23;;;;;;;38.80;25.70;;;;;;;6.67;100.00;100935.88;5079203;28;20497;-73
2023/04/22 00:37:48;;;;;;;37.72;27.48;;;;;;;6.73;100.00;100929.75;5081142;28;20085;-72
2023/04/22 00:40:14;;;;;;;39.50;27.23;;;;;;;6.74;100.00;100925.19;5084235;28;20107;-72
2023/04/22 00:42:41;;;;;;;42.63;27.85;;;;;;;6.73;100.00;100915.31;5061720;28;20024;-72
2023/04/22 00:45:10;;;;;;;35.50;26.08;;;;;;;6.68;100.00;100928.59;5077599;28;20040;-72
2023/04/22 00:47:36;;;;;;;38.17;26.85;;;;;;;6.64;100.00;100921.78;5066241;28;20043;-74
2023/04/22 00:50:02;;;;;;;38.35;26.90;;;;;;;6.59;100.00;100922.28;5083181;28;20033;-72
2023/04/22 00:52:27;;;;;;;37.72;26.63;;;;;;;6.55;100.00;100922.78;5063636;28;20032;-72
2023/04/22 00:54:53;;;;;;;39.53;27.70;;;;;;;6.51;100.00;100921.44;5081561;28;20031;-73
2023/04/22 00:57:19;;;;;;;44.15;27.17;;;;;;;6.45;100.00;100919.38;5080842;28;20063;-72
2023/04/22 00:59:45;;;;;;;35.70;25.10;;;;;;;6.39;100.00;100918.19;5078429;28;20021;-74
2023/04/22 01:02:13;;;;;;;36.90;24.98;;;;;;;6.37;100.00;100930.28;5064496;28;20067;-72
2023/04/22 01:04:38;;;;;;;36.65;25.13;;;;;;;6.36;100.00;100932.13;5061927;28;20078;-72
2023/04/22 01:07:04;;;;;;;34.75;24.35;;;;;;;6.35;100.00;100927.72;5080047;28;20032;-72
2023/04/22 01:09:29;;;;;;;35.92;25.85;;;;;;;6.30;100.00;100921.91;5082220;28;20373;-74
2023/04/22 01:11:56;;;;;;;39.72;25.45;;;;;;;6.28;100.00;100921.25;5081254;28;20115;-74
2023/04/22 01:14:22;;;;;;;37.83;26.48;;;;;;;6.26;100.00;100925.16;5075238;28;20100;-74
2023/04/22 01:16:48;;;;;;;38.72;27.38;;;;;;;6.25;100.00;100920.75;5075460;28;20036;-76
2023/04/22 01:19:14;;;;;;;37.03;26.23;;;;;;;6.22;100.00;100910.19;5078534;28;20085;-74
2023/04/22 01:21:43;;;;;;;43.83;29.13;;;;;;;6.18;100.00;100915.13;5081028;28;20032;-73
2023/04/22 01:24:09;;;;;;;37.10;26.50;;;;;;;6.08;100.00;100908.97;5061088;28;20029;-71
2023/04/22 01:26:36;;;;;;;39.63;26.92;;;;;;;6.00;100.00;100916.25;5076176;28;20029;-72
2023/04/22 01:29:02;;;;;;;38.65;26.25;;;;;;;6.01;100.00;100915.25;5059619;28;20389;-72
2023/04/22 01:31:28;;;;;;;39.80;27.15;;;;;;;6.05;100.00;100912.03;5079275;28;20093;-72
2023/04/22 01:33:54;;;;;;;37.17;26.27;;;;;;;6.06;100.00;100902.88;5075328;28;20044;-73
2023/04/22 01:36:19;;;;;;;43.80;27.90;;;;;;;6.07;100.00;100910.00;5077412;28;20481;-74
2023/04/22 01:38:45;;;;;;;37.67;27.00;;;;;;;6.09;100.00;100901.69;5065165;28;20896;-73
2023/04/22 01:41:12;;;;;;;43.45;27.60;;;;;;;6.10;100.00;100906.94;5081240;28;20055;-74
2023/04/22 01:43:39;;;;;;;38.95;27.10;;;;;;;6.13;100.00;100903.88;5058585;28;20063;-73
2023/04/22 01:46:05;;;;;;;41.30;28.20;;;;;;;6.17;100.00;100901.69;5078060;28;20370;-73
2023/04/22 01:48:31;;;;;;;47.08;28.05;;;;;;;6.15;100.00;100901.00;5078117;28;20040;-74
2023/04/22 01:50:56;;;;;;;41.55;27.83;;;;;;;6.07;100.00;100909.13;5082419;28;20040;-73
2023/04/22 01:53:21;;;;;;;47.53;30.17;;;;;;;6.14;100.00;100904.75;5081917;28;20375;-72
2023/04/22 01:55:47;;;;;;;43.42;30.95;;;;;;;6.16;100.00;100917.16;5074885;28;20055;-73
2023/04/22 01:58:13;;;;;;;47.90;32.55;;;;;;;6.22;100.00;100919.22;5082915;28;20048;-73
2023/04/22 02:00:39;;;;;;;48.45;31.80;;;;;;;6.29;100.00;100917.50;5073850;28;20489;-73
2023/04/22 02:03:05;;;;;;;44.97;31.63;;;;;;;6.35;100.00;100921.44;5080478;28;20236;-72
2023/04/22 02:05:30;;;;;;;41.80;29.53;;;;;;;6.36;100.00;100917.69;5080093;28;20457;-73
2023/04/22 02:07:56;;;;;;;47.22;29.40;;;;;;;6.34;100.00;100917.84;5080300;28;20028;-75
2023/04/22 02:10:22;;;;;;;42.75;28.38;;;;;;;6.28;100.00;100918.53;5063003;28;20024;-73
2023/04/22 02:12:47;;;;;;;44.13;28.95;;;;;;;6.31;100.00;100912.72;5081410;28;20039;-74
2023/04/22 02:15:12;;;;;;;41.60;29.27;;;;;;;6.32;100.00;100910.88;5074181;28;20421;-73
2023/04/22 02:17:42;;;;;;;49.92;31.63;;;;;;;6.34;100.00;100909.69;5078281;28;20393;-73
2023/04/22 02:20:10;;;;;;;41.92;28.60;;;;;;;6.39;100.00;100907.31;5086950;28;20063;-73
2023/04/22 02:22:36;;;;;;;44.15;29.70;;;;;;;6.36;100.00;100910.38;5067610;28;20032;-75
2023/04/22 02:25:02;;;;;;;40.45;28.02;;;;;;;6.39;100.00;100914.63;5077571;28;20032;-74
2023/04/22 02:27:27;;;;;;;45.17;28.75;;;;;;;6.41;100.00;100910.72;5078965;28;20090;-73
2023/04/22 02:29:53;;;;;;;45.95;30.80;;;;;;;6.46;100.00;100907.50;5072958;28;20070;-73
2023/04/22 02:32:18;;;;;;;40.55;28.05;;;;;;;6.46;100.00;100899.34;5078382;28;20078;-73
2023/04/22 02:34:44;;;;;;;43.00;30.15;;;;;;;6.54;100.00;100904.75;5081873;28;20032;-73
2023/04/22 02:37:09;;;;;;;40.05;28.42;;;;;;;6.59;100.00;100894.22;5076067;28;20033;-73
2023/04/22 02:39:34;;;;;;;42.03;27.30;;;;;;;6.59;100.00;100892.38;5078186;28;20346;-73
2023/04/22 02:42:00;;;;;;;39.55;28.73;;;;;;;6.60;100.00;100883.19;5066074;28;20550;-73
2023/04/22 02:44:26;;;;;;;41.33;27.67;;;;;;;6.60;100.00;100885.91;5058539;28;20020;-73
2023/04/22 02:46:51;;;;;;;40.97;28.05;;;;;;;6.63;100.00;100887.44;5080015;28;20031;-72
2023/04/22 02:49:16;;;;;;;42.15;28.48;;;;;;;6.58;100.00;100884.38;5082545;28;20039;-73
2023/04/22 02:51:42;;;;;;;39.75;27.58;;;;;;;6.55;100.00;100879.25;5061558;28;20031;-72
2023/04/22 02:54:07;;;;;;;37.15;26.98;;;;;;;6.52;100.00;100872.28;5079870;28;20035;-70
2023/04/22 02:56:33;;;;;;;41.65;28.98;;;;;;;6.53;100.00;100864.97;5075300;28;20024;-68
2023/04/22 02:58:58;;;;;;;41.25;28.85;;;;;;;6.57;100.00;100866.34;5078095;28;20468;-67
2023/04/22 03:01:23;;;;;;;44.80;28.20;;;;;;;6.60;100.00;100871.44;5077308;28;20032;-68
2023/04/22 03:03:49;;;;;;;42.25;28.33;;;;;;;6.58;100.00;100862.59;5074435;28;20032;-68
2023/04/22 03:06:15;;;;;;;38.55;27.80;;;;;;;6.61;100.00;100870.41;5079206;28;20034;-69
2023/04/22 03:08:40;;;;;;;40.25;27.83;;;;;;;6.63;100.00;100866.47;5080007;28;20710;-68
2023/04/22 03:11:05;;;;;;;39.25;27.00;;;;;;;6.64;100.00;100857.31;5062316;28;20366;-68
2023/04/22 03:13:31;;;;;;;39.70;26.77;;;;;;;6.64;100.00;100856.47;5079176;28;20050;-68
2023/04/22 03:15:56;;;;;;;41.08;26.52;;;;;;;6.63;100.00;100852.06;5059383;28;20433;-68
2023/04/22 03:18:21;;;;;;;44.25;26.33;;;;;;;6.65;100.00;100847.28;5078919;28;20031;-68
2023/04/22 03:20:48;;;;;;;39.63;29.35;;;;;;;6.67;100.00;100850.69;5070677;28;20024;-68
2023/04/22 03:23:13;;;;;;;39.63;28.50;;;;;;;6.72;100.00;100845.59;5081574;28;20020;-68
2023/04/22 03:25:39;;;;;;;40.83;27.73;;;;;;;6.74;100.00;100838.09;5076610;28;20040;-68
2023/04/22 03:28:05;;;;;;;40.22;27.88;;;;;;;6.69;100.00;100849.50;5077339;28;20034;-69
2023/04/22 03:30:30;;;;;;;39.58;26.58;;;;;;;6.68;100.00;100842.31;5077895;28;20017;-68
2023/04/22 03:32:56;;;;;;;40.20;27.92;;;;;;;6.69;100.00;100843.19;5062563;28;20616;-70
2023/04/22 03:35:22;;;;;;;41.07;28.23;;;;;;;6.68;100.00;100842.31;5077950;28;20131;-68
2023/04/22 03:37:47;;;;;;;39.13;26.95;;;;;;;6.67;100.00;100846.06;5078759;28;20360;-69
2023/04/22 03:40:13;;;;;;;42.10;29.60;;;;;;;6.70;100.00;100837.59;5080754;28;20065;-74
2023/04/22 03:42:38;;;;;;;36.03;26.83;;;;;;;6.69;100.00;100833.16;5085938;28;20115;-74
2023/04/22 03:45:04;;;;;;;38.28;27.45;;;;;;;6.65;100.00;100833.66;5079325;28;20525;-73
2023/04/22 03:47:29;;;;;;;39.75;27.65;;;;;;;6.66;100.00;100828.06;5083206;28;20040;-74
2023/04/22 03:49:55;;;;;;;37.85;27.73;;;;;;;6.66;100.00;100821.75;5059869;28;20140;-73
2023/04/22 03:52:21;;;;;;;36.03;26.17;;;;;;;6.72;100.00;100821.09;5080440;28;20036;-73
2023/04/22 03:54:46;;;;;;;35.88;26.60;;;;;;;6.71;100.00;100822.09;5078070;28;20020;-73
2023/04/22 03:57:11;;;;;;;43.50;29.25;;;;;;;6.73;100.00;100818.16;5079607;28;20393;-73
2023/04/22 03:59:37;;;;;;;41.90;29.60;;;;;;;6.76;100.00;100825.13;5079189;28;20381;-74
2023/04/22 04:02:02;;;;;;;38.72;28.02;;;;;;;6.77;100.00;100807.78;5087583;28;20071;-73
2023/04/22 04:04:28;;;;;;;39.22;28.15;;;;;;;6.75;100.00;100812.56;5085272;28;20032;-74
2023/04/22 04:06:54;;;;;;;40.05;28.45;;;;;;;6.71;100.00;100813.91;5068422;28;20037;-73
2023/04/22 04:09:19;;;;;;;39.30;29.10;;;;;;;6.71;100.00;100819.38;5082112;28;20389;-73
2023/04/22 04:11:45;;;;;;;41.45;29.58;;;;;;;6.73;100.00;100810.00;5079107;28;20025;-73
2023/04/22 04:14:10;;;;;;;38.90;27.80;;;;;;;6.76;100.00;100797.91;5063766;28;20025;-72
2023/04/22 04:16:36;;;;;;;40.90;28.77;;;;;;;6.78;100.00;100795.88;5078300;28;20029;-72
2023/04/22 04:19:02;;;;;;;39.72;29.05;;;;;;;6.78;100.00;100798.63;5087353;28;20063;-73
2023/04/22 04:21:28;;;;;;;42.88;29.83;;;;;;;6.78;100.00;100790.44;5081024;28;20149;-72
2023/04/22 04:23:53;;;;;;;39.63;27.23;;;;;;;6.80;100.00;100796.56;5083785;28;20126;-72
2023/04/22 04:26:19;;;;;;;43.15;28.98;;;;;;;6.79;100.00;100795.69;5082879;28;20049;-72
2023/04/22 04:28:46;;;;;;;39.08;28.95;;;;;;;6.76;100.00;100790.63;5081438;28;20082;-72
2023/04/22 04:31:11;;;;;;;42.33;28.40;;;;;;;6.79;100.00;100797.59;5082028;28;20020;-72
2023/04/22 04:33:38;;;;;;;39.60;28.73;;;;;;;6.80;100.00;100791.09;5082715;28;20043;-73
2023/04/22 04:36:04;;;;;;;41.92;27.73;;;;;;;6.80;100.00;100791.97;5064348;28;20031;-72
2023/04/22 04:38:30;;;;;;;39.38;26.65;;;;;;;6.83;100.00;100788.06;5066402;28;20032;-73
2023/04/22 04:40:55;;;;;;;37.33;27.10;;;;;;;6.84;100.00;100787.03;5080806;28;20033;-72
2023/04/22 04:43:24;;;;;;;38.72;27.77;;;;;;;6.81;100.00;100779.19;5066519;28;20038;-72
2023/04/22 04:45:50;;;;;;;38.67;26.50;;;;;;;6.87;100.00;100797.53;5079582;28;20496;-72
2023/04/22 04:48:19;;;;;;;38.85;27.70;;;;;;;6.85;100.00;100781.41;5079240;28;20040;-72
2023/04/22 04:50:45;;;;;;;38.65;28.10;;;;;;;6.84;100.00;100785.13;5061725;28;20492;-72
2023/04/22 04:53:11;;;;;;;38.87;27.13;;;;;;;6.86;100.00;100783.09;5081729;28;20094;-72
2023/04/22 04:55:37;;;;;;;39.15;27.20;;;;;;;6.90;100.00;100780.88;5078104;28;20029;-72
2023/04/22 04:58:03;;;;;;;43.22;29.23;;;;;;;6.95;100.00;100773.84;5082875;28;20103;-73
2023/04/22 05:00:29;;;;;;;41.00;29.90;;;;;;;6.98;100.00;100784.41;5060622;28;20518;-71
2023/04/22 05:02:54;;;;;;;40.03;29.03;;;;;;;6.99;100.00;100782.56;5081906;28;20042;-71
2023/04/22 05:05:20;;;;;;;37.63;27.75;;;;;;;6.99;100.00;100779.81;5077674;28;20103;-73
2023/04/22 05:07:45;;;;;;;38.50;28.73;;;;;;;7.01;100.00;100783.22;5075328;28;20053;-71
2023/04/22 05:10:11;;;;;;;39.40;28.88;;;;;;;7.03;100.00;100782.00;5081808;28;20063;-72
2023/04/22 05:12:36;;;;;;;38.03;29.27;;;;;;;7.03;100.00;100776.56;5079847;28;20031;-71
2023/04/22 05:15:02;;;;;;;37.55;28.50;;;;;;;7.10;100.00;100791.16;5062430;28;20024;-72
2023/04/22 05:17:27;;;;;;;40.15;28.90;;;;;;;7.16;100.00;100798.63;5061164;28;20051;-71
2023/04/22 05:19:53;;;;;;;41.25;29.63;;;;;;;7.26;100.00;100809.34;5068089;28;20070;-71
2023/04/22 05:22:18;;;;;;;37.42;28.05;;;;;;;7.29;100.00;100807.09;5080613;28;20132;-71
2023/04/22 05:24:44;;;;;;;38.60;28.75;;;;;;;7.35;100.00;100803.66;5080146;28;20550;-71
2023/04/22 05:27:09;;;;;;;39.75;29.40;;;;;;;7.32;100.00;100805.91;5080232;28;20081;-71
2023/04/22 05:29:35;;;;;;;39.55;28.05;;;;;;;7.33;100.00;100802.13;5072358;28;20103;-71
2023/04/22 05:32:00;;;;;;;39.47;28.17;;;;;;;7.39;100.00;100799.56;5080983;28;20028;-71
2023/04/22 05:34:26;;;;;;;35.75;27.13;;;;;;;7.44;100.00;100794.44;5075557;28;20094;-71
2023/04/22 05:36:51;;;;;;;34.67;26.98;;;;;;;7.52;100.00;100801.72;5074527;28;20028;-75
2023/04/22 05:39:17;;;;;;;36.90;28.42;;;;;;;7.57;100.00;100797.41;5075303;28;20020;-73
2023/04/22 05:41:42;;;;;;;40.45;28.08;;;;;;;7.63;100.00;100801.31;5066080;28;20127;-73
2023/04/22 05:44:08;;;;;;;36.03;27.95;;;;;;;7.70;100.00;100785.91;5063873;28;20047;-72
2023/04/22 05:46:33;;;;;;;32.78;25.45;;;;;;;7.76;100.00;100785.19;5076937;28;20111;-73
2023/04/22 05:48:58;;;;;;;36.65;26.92;;;;;;;7.80;100.00;100792.00;5081961;28;20093;-74
2023/04/22 05:51:24;;;;;;;31.67;25.63;;;;;;;7.84;100.00;100783.25;5062810;28;20485;-74
2023/04/22 05:53:49;;;;;;;33.10;25.23;;;;;;;7.88;100.00;100778.28;5062591;28;20115;-74
2023/04/22 05:56:16;;;;;;;31.35;24.63;;;;;;;7.95;100.00;100779.28;5075234;28;20028;-75
2023/04/22 05:58:41;;;;;;;33.97;25.80;;;;;;;7.99;100.00;100781.44;5078542;28;20492;-74
2023/04/22 06:01:07;;;;;;;33.88;25.08;;;;;;;8.03;100.00;100771.88;5077759;28;20040;-75
2023/04/22 06:03:33;;;;;;;35.97;27.73;;;;;;;8.11;100.00;100773.69;5061595;28;20028;-76
2023/04/22 06:05:59;;;;;;;31.92;24.92;;;;;;;8.19;100.00;100770.88;5078089;28;20440;-76
2023/04/22 06:08:24;;;;;;;36.03;25.93;;;;;;;8.23;100.00;100772.25;5079883;28;20104;-75
2023/04/22 06:10:50;;;;;;;36.15;26.65;;;;;;;8.27;100.00;100770.84;5075906;28;20441;-75
2023/04/22 06:13:16;;;;;;;34.20;27.27;;;;;;;8.31;100.00;100769.44;5074399;28;20024;-76
2023/04/22 06:15:41;;;;;;;37.33;25.58;;;;;;;8.42;100.00;100768.97;5075029;28;20024;-74
2023/04/22 06:18:06;;;;;;;33.33;25.80;;;;;;;8.43;100.00;100763.34;5077643;28;20453;-75
2023/04/22 06:20:32;;;;;;;33.20;25.83;;;;;;;8.55;100.00;100771.94;5077294;28;20035;-75
2023/04/22 06:22:57;;;;;;;33.45;25.27;;;;;;;8.63;100.00;100771.84;5065851;28;20514;-75
2023/04/22 06:25:23;;;;;;;34.35;26.75;;;;;;;8.70;100.00;100767.34;5057201;28;20074;-75
2023/04/22 06:27:49;;;;;;;34.38;25.73;;;;;;;8.78;100.00;100757.19;5077514;28;20421;-75
2023/04/22 06:30:14;;;;;;;33.60;25.90;;;;;;;8.88;100.00;100751.41;5074029;28;20485;-75
2023/04/22 06:32:39;;;;;;;31.63;24.67;;;;;;;8.96;100.00;100748.59;5075182;28;20063;-75
2023/04/22 06:35:05;;;;;;;34.17;24.55;;;;;;;9.03;100.00;100761.28;5079397;28;20510;-75
2023/04/22 06:37:31;;;;;;;32.63;25.73;;;;;;;9.08;100.00;100747.91;5073480;28;20019;-75
2023/04/22 06:39:56;;;;;;;31.98;24.67;;;;;;;9.18;100.00;100744.91;5075548;28;20114;-76
2023/04/22 06:42:22;;;;;;;30.70;24.58;;;;;;;9.25;100.00;100764.97;5057906;28;20031;-75
2023/04/22 06:44:47;;;;;;;30.08;23.15;;;;;;;9.36;100.00;100748.06;5075083;28;20039;-75
2023/04/22 06:47:12;;;;;;;29.88;22.48;;;;;;;9.56;100.00;100744.50;5077336;28;20448;-75
2023/04/22 06:49:38;;;;;;;31.95;24.65;;;;;;;9.66;100.00;100731.38;5070888;28;20098;-76
2023/04/22 06:52:04;;;;;;;29.13;24.10;;;;;;;9.93;100.00;100735.25;5071759;28;20209;-74
2023/04/22 06:54:30;;;;;;;30.40;22.25;;;;;;;10.01;100.00;100730.47;5074749;28;20529;-75
2023/04/22 06:56:56;;;;;;;29.92;23.42;;;;;;;10.07;100.00;100731.59;5073485;28;20033;-75
2023/04/22 06:59:21;;;;;;;29.35;23.45;;;;;;;10.22;100.00;100737.84;5075390;28;20331;-76
2023/04/22 07:01:47;;;;;;;28.07;23.47;;;;;;;10.52;100.00;100739.34;5076718;28;20036;-75
2023/04/22 07:04:13;;;;;;;29.23;22.98;;;;;;;10.82;100.00;100732.59;5055319;28;20060;-74
2023/04/22 07:06:39;;;;;;;27.67;24.00;;;;;;;11.11;100.00;100748.78;5066653;28;20120;-75
2023/04/22 07:09:04;;;;;;;29.05;24.17;;;;;;;11.57;100.00;100742.44;5078680;28;20137;-75
2023/04/22 07:11:30;;;;;;;31.03;23.57;;;;;;;11.90;100.00;100748.06;5063809;28;20134;-76
2023/04/22 07:13:56;;;;;;;26.93;22.03;;;;;;;12.07;100.00;100749.34;5080553;28;20218;-75
2023/04/22 07:16:22;;;;;;;23.50;19.17;;;;;;;12.00;100.00;100754.81;5072758;28;20078;-75
2023/04/22 07:18:47;;;;;;;20.90;18.63;;;;;;;11.85;100.00;100756.06;5074640;28;20408;-74
2023/04/22 07:21:12;;;;;;;23.73;19.57;;;;;;;11.80;100.00;100764.09;5075418;28;20038;-75
2023/04/22 07:23:38;;;;;;;22.87;19.57;;;;;;;11.84;100.00;100759.88;5072323;28;20028;-75
2023/04/22 07:26:03;;;;;;;21.10;18.77;;;;;;;11.93;100.00;100769.59;5080955;28;20346;-73
2023/04/22 07:28:29;;;;;;;25.13;20.50;;;;;;;12.13;100.00;100757.59;5077124;28;20031;-75
2023/04/22 07:30:54;;;;;;;22.03;19.63;;;;;;;12.54;100.00;100757.41;5077897;28;20123;-75
2023/04/22 07:33:20;;;;;;;20.93;18.73;;;;;;;12.74;100.00;100747.22;5079434;28;20485;-74
2023/04/22 07:35:46;;;;;;;26.53;19.90;;;;;;;13.16;100.00;100741.22;5074390;28;20106;-74
2023/04/22 07:38:11;;;;;;;23.70;19.33;;;;;;;13.37;97.59;100749.19;5078851;28;20024;-74
2023/04/22 07:40:36;;;;;;;23.57;19.27;;;;;;;13.67;97.71;100755.84;5077959;28;20281;-74
2023/04/22 07:43:04;;;;;;;21.87;18.20;;;;;;;13.15;97.27;100748.66;5078769;28;20024;-74
2023/04/22 07:45:29;;;;;;;20.30;17.55;;;;;;;12.79;97.99;100750.16;5074053;28;20489;-74
2023/04/22 07:47:55;;;;;;;23.63;17.13;;;;;;;12.60;97.26;100740.06;5076723;28;20024;-74
2023/04/22 07:50:20;;;;;;;18.60;15.47;;;;;;;12.73;95.48;100718.91;5075961;28;20029;-75
2023/04/22 07:52:46;;;;;;;19.07;16.00;;;;;;;12.83;96.84;100716.56;5074655;28;20024;-75
2023/04/22 07:55:11;;;;;;;20.43;17.47;;;;;;;12.89;98.69;100712.94;5072018;28;20123;-75
2023/04/22 07:57:38;;;;;;;19.93;17.20;;;;;;;12.81;96.56;100717.84;5077663;28;20040;-73
2023/04/22 08:00:07;;;;;;;21.40;17.80;;;;;;;12.85;99.00;100716.31;5077109;28;20024;-74
2023/04/22 08:02:33;;;;;;;22.55;17.92;;;;;;;12.74;98.61;100722.47;5076399;28;20031;-74
2023/04/22 08:04:58;;;;;;;22.30;17.43;;;;;;;12.61;99.38;100714.28;5077690;28;20508;-74
2023/04/22 08:07:24;;;;;;;24.10;17.60;;;;;;;12.72;99.25;100719.97;5074249;28;20032;-75
2023/04/22 08:09:50;;;;;;;22.97;17.47;;;;;;;12.71;99.37;100710.00;5060227;28;20031;-75
2023/04/22 08:12:15;;;;;;;23.80;17.57;;;;;;;12.71;98.06;100725.69;5077974;28;20097;-74
2023/04/22 08:14:40;;;;;;;19.70;16.40;;;;;;;13.08;100.00;100724.97;5069458;28;20478;-74
2023/04/22 08:17:06;;;;;;;18.30;15.60;;;;;;;13.40;96.13;100716.59;5076220;28;20107;-74
2023/04/22 08:19:31;;;;;;;18.23;16.17;;;;;;;13.33;92.69;100709.41;5078013;28;20024;-74
2023/04/22 08:21:57;;;;;;;23.20;15.10;;;;;;;13.53;95.50;100723.94;5072499;28;20135;-74
2023/04/22 08:24:22;;;;;;;18.00;14.73;;;;;;;13.56;92.29;100716.09;5076608;28;20631;-74
2023/04/22 08:26:48;;;;;;;18.77;14.93;;;;;;;13.72;91.43;100717.50;5079770;28;20024;-74
2023/04/22 08:29:13;;;;;;;14.17;12.00;;;;;;;13.99;88.35;100721.75;5081208;28;20056;-74
2023/04/22 08:31:38;;;;;;;15.93;11.47;;;;;;;13.92;90.32;100721.81;5074502;28;20024;-74
2023/04/22 08:34:04;;;;;;;17.93;12.03;;;;;;;13.91;91.09;100722.88;5080896;28;20028;-74
2023/04/22 08:36:30;;;;;;;17.20;13.50;;;;;;;13.74;89.08;100718.09;5078314;28;20382;-74
2023/04/22 08:38:56;;;;;;;14.32;12.50;;;;;;;13.89;89.31;100714.00;5076984;28;20039;-74
2023/04/22 08:41:23;;;;;;;18.33;13.10;;;;;;;14.03;87.81;100698.22;5081122;28;20027;-74
2023/04/22 08:43:49;;;;;;;12.68;11.02;;;;;;;14.13;85.86;100699.41;5078271;28;20103;-74
2023/04/22 08:46:16;;;;;;;12.17;10.70;;;;;;;14.18;85.80;100694.06;5076660;28;20033;-74
2023/04/22 08:48:41;;;;;;;;;;;;;;;14.29;84.25;100682.34;5056277;28;20592;-74
2023/04/22 08:51:07;;;;;;;12.90;10.85;;;;;;;14.39;85.27;100679.06;5074500;28;19926;-74
2023/04/22 08:53:33;;;;;;;12.13;9.50;;;;;;;14.47;82.98;100665.03;5082272;28;20042;-74
2023/04/22 08:55:58;;;;;;;12.33;10.00;;;;;;;14.51;82.57;100664.31;5075735;28;20016;-76
2023/04/22 08:58:24;;;;;;;11.83;10.03;;;;;;;14.46;86.37;100661.41;5078331;28;20025;-73
2023/04/22 09:00:50;;;;;;;13.30;10.83;;;;;;;14.42;85.64;100651.91;5060276;28;20033;-74
2023/04/22 09:03:16;;;;;;;10.80;9.70;;;;;;;14.25;82.55;100642.53;5066462;28;20492;-75
2023/04/22 09:05:44;;;;;;;14.30;10.37;;;;;;;14.17;84.58;100639.19;5083188;28;20028;-74
2023/04/22 09:08:10;;;;;;;13.57;9.85;;;;;;;13.98;83.08;100630.03;5078178;28;20036;-72
2023/04/22 09:10:37;;;;;;;12.43;9.82;;;;;;;13.99;85.13;100620.69;5077462;28;20046;-73
2023/04/22 09:13:05;;;;;;;11.43;9.82;;;;;;;13.91;86.40;100609.13;5072087;28;20028;-74
2023/04/22 09:15:31;;;;;;;13.52;9.55;;;;;;;13.94;86.04;100620.53;5073944;28;20056;-73
2023/04/22 09:17:57;;;;;;;9.95;8.77;;;;;;;14.25;86.23;100623.25;5073564;28;20035;-73
2023/04/22 09:20:27;;;;;;;14.02;9.43;;;;;;;14.38;84.76;100634.16;5076504;28;20100;-73
2023/04/22 09:22:53;;;;;;;14.15;10.73;;;;;;;14.56;86.13;100647.94;5058496;28;20081;-73
2023/04/22 09:25:24;;;;;;;19.42;10.90;;;;;;;14.61;84.19;100650.88;5076221;28;20028;-73
2023/04/22 09:27:57;;;;;;;11.48;10.05;;;;;;;14.78;83.07;100674.00;5078677;28;20060;-75
2023/04/22 09:30:35;;;;;;;14.23;9.75;;;;;;;15.29;81.66;100671.72;5063793;28;20132;-74
2023/04/22 09:33:01;;;;;;;;;;;;;;;15.75;79.62;100674.69;5082110;28;20380;-73
2023/04/22 09:35:36;;;;;;;9.77;8.77;;;;;;;16.02;77.36;100673.19;5073312;28;20016;-73
2023/04/22 09:38:03;;;;;;;9.38;8.35;;;;;;;16.66;75.22;100658.53;5073123;28;20545;-74
2023/04/22 09:40:30;;;;;;;10.07;7.35;;;;;;;16.83;71.65;100667.78;5059876;28;20393;-74
2023/04/22 09:42:59;;;;;;;9.20;7.53;;;;;;;16.58;70.64;100667.16;5059773;28;20598;-75
2023/04/22 09:45:32;;;;;;;8.38;7.18;;;;;;;16.46;74.48;100663.56;5060204;28;20677;-73
2023/04/22 09:48:02;;;;;;;11.57;7.10;;;;;;;16.54;72.19;100674.28;5060618;28;20048;-74
2023/04/22 09:50:28;;;;;;;5.95;5.32;;;;;;;16.47;69.83;100666.09;5063242;28;20162;-74
2023/04/22 09:53:01;;;;;;;7.72;5.35;;;;;;;16.25;71.29;100669.66;5046430;28;20027;-74
2023/04/22 09:55:28;;;;;;;7.93;6.07;;;;;;;16.09;74.14;100667.56;5062486;28;20028;-75
2023/04/22 09:57:56;;;;;;;8.48;5.97;;;;;;;16.00;73.80;100666.25;5058570;28;20036;-74
2023/04/22 10:00:24;;;;;;;9.10;7.05;;;;;;;16.19;72.44;100670.59;5046354;28;20020;-74
2023/04/22 10:02:49;;;;;;;10.52;7.45;;;;;;;15.84;73.37;100658.66;5046064;28;20036;-75
2023/04/22 10:05:15;;;;;;;8.50;6.80;;;;;;;15.71;74.02;100669.88;5059224;28;20025;-74
2023/04/22 10:07:42;;;;;;;10.13;7.27;;;;;;;15.60;75.41;100678.97;5053780;28;20040;-74
2023/04/22 10:10:08;;;;;;;9.63;7.72;;;;;;;15.69;75.56;100672.88;5059752;28;20060;-74
2023/04/22 10:12:37;;;;;;;8.35;7.35;;;;;;;15.84;75.18;100670.53;5051064;28;20798;-74
2023/04/22 10:15:06;;;;;;;9.57;7.65;;;;;;;15.79;75.42;100670.38;5040097;28;20024;-74
2023/04/22 10:17:36;;;;;;;8.30;7.45;;;;;;;15.84;74.50;100684.34;5053884;28;20020;-72
2023/04/22 10:20:06;;;;;;;10.10;8.57;;;;;;;15.72;75.14;100682.59;5061278;28;20107;-73
2023/04/22 10:22:34;;;;;;;9.68;8.15;;;;;;;15.69;76.46;100696.91;5060780;28;20028;-73
2023/04/22 10:25:00;;;;;;;8.98;7.90;;;;;;;15.40;77.34;100703.22;5046945;28;20017;-73
2023/04/22 10:27:25;;;;;;;12.10;8.00;;;;;;;15.20;77.61;100695.16;5061791;28;20032;-73
2023/04/22 10:29:51;;;;;;;9.77;8.40;;;;;;;15.18;78.53;100688.19;5043731;28;20070;-73
2023/04/22 10:32:16;;;;;;;10.83;7.87;;;;;;;15.28;78.89;100678.31;5061867;28;20488;-73
2023/04/22 10:34:42;;;;;;;11.07;9.67;;;;;;;15.18;78.67;100688.19;5047680;28;20032;-73
2023/04/22 10:37:10;;;;;;;13.77;8.93;;;;;;;15.10;80.67;100688.53;5061104;28;20427;-73
2023/04/22 10:39:37;;;;;;;11.30;9.13;;;;;;;15.16;78.21;100677.38;5058260;28;20110;-74
2023/04/22 10:42:02;;;;;;;9.10;8.18;;;;;;;15.19;77.98;100662.28;5059593;28;20020;-73
2023/04/22 10:44:44;;;;;;;11.13;9.70;;;;;;;15.10;78.45;100658.16;5060572;28;20031;-73
2023/04/22 10:47:09;;;;;;;11.88;8.40;;;;;;;15.05;78.44;100658.03;5058632;28;20437;-73
2023/04/22 10:49:35;;;;;;;11.20;8.00;;;;;;;15.04;78.47;100672.88;5068773;28;20040;-74
2023/04/22 10:52:02;;;;;;;13.57;9.40;;;;;;;14.93;78.35;100663.44;5079131;28;20039;-73
2023/04/22 10:54:28;;;;;;;13.88;9.38;;;;;;;14.76;80.34;100698.22;5079241;28;20166;-73
2023/04/22 10:57:18;;;;;;;11.33;8.43;;;;;;;14.71;80.86;100694.44;5082860;28;20098;-73
2023/04/22 10:59:47;;;;;;;12.90;9.18;;;;;;;14.52;83.67;100690.81;5076926;28;20088;-74
2023/04/22 11:02:14;;;;;;;18.38;10.35;;;;;;;14.33;85.86;100691.00;5082108;28;20027;-74
2023/04/22 11:04:39;;;;;;;13.13;10.73;;;;;;;14.22;85.76;100688.97;5077909;28;20507;-72
2023/04/22 11:07:17;;;;;;;16.20;9.60;;;;;;;13.97;87.77;100704.59;5081039;28;20043;-71